nws-alerts: Checking more than four warning/county codes can delay the loading of your pages. You should use a cron job to get the data.

Nearby METAR Reports

 

KFCI - Richmond/Chester, Virginia, USA
Distance from station: ESE 7mi, 12km
Updated: Sun, 25-Aug-2019 4:56am EDT
Overcast
Overcast
 Wind from varies
Wind: varies 5 mph , 7 km/h
Temperature: 70°F , 21°C
Dew Point: 57°F , 14°C
Humidity: 64%
Barometer: 30.15 inHg , 1021 hPa
Clouds: Overcast
Visibility: 10 miles , 16 km
Cloud details: Overcast 7000 ft
2019/08/25 08:56 KFCI 250856Z AUTO VRB04KT 10SM OVC070 21/14 A3015 RMK AO2 SLP220 T02060144 56005
KPTB - Petersburg, Virginia, USA
Distance from station: SSE 19mi, 31km
Updated: Sat, 24-Aug-2019 4:55pm EDT
NOT Current
Overcast
Overcast
 Wind from NE
Wind: NE 9 mph , 15 km/h, Gust: 16 mph , 26 km/h
Temperature: 77°F , 25°C
Dew Point: 54°F , 12°C
Humidity: 44%
Barometer: 30.14 inHg , 1020.7 hPa
Clouds: Overcast
Visibility: 10 miles , 16 km
Cloud details: Partly cloudy 6500 ft
Overcast 9000 ft
2019/08/24 20:55 KPTB 242055Z AUTO 04008G14KT 10SM SCT065 OVC090 25/12 A3014 RMK AO2 T02510122
 
KRIC - Richmond, Virginia, USA
Distance from station: ENE 19mi, 31km
Updated: Sun, 25-Aug-2019 4:54am EDT
Overcast
Overcast
 Wind from N
Wind: N 7 mph , 11 km/h
Temperature: 66°F , 19°C
Dew Point: 61°F , 16°C
Humidity: 83%
Barometer: 30.15 inHg , 1021 hPa
Clouds: Overcast
Visibility: 10 miles , 16 km
Cloud details: Overcast 7500 ft
2019/08/25 08:54 KRIC 250854Z 01006KT 10SM OVC075 19/16 A3015 RMK AO2 SLP212 T01940156 56005
KOFP - Richmond/Hanover, Virginia, USA
Distance from station: NNE 22mi, 36km
Updated: Sun, 25-Aug-2019 4:54am EDT
Overcast
Overcast
 Wind from varies
Wind: varies 3 mph , 6 km/h
Temperature: 64°F , 18°C
Dew Point: 57°F , 14°C
Humidity: 78%
Barometer: 30.17 inHg , 1021.7 hPa
Clouds: Overcast
Visibility: 10 miles , 16 km
Cloud details: Overcast 7500 ft
2019/08/25 08:54 KOFP 250854Z AUTO VRB03KT 10SM OVC075 18/14 A3017 RMK AO2 SLP215 T01780144 56005
 
KW96 - Quinton, Virginia, USA
Distance from station: E 28mi, 46km
Updated: Sun, 25-Aug-2019 5:35am EDT
Overcast
Overcast
 Wind from calm
Wind: Calm
Temperature: 66°F , 19°C
Dew Point: 61°F , 16°C
Humidity: 83%
Barometer: 30.15 inHg , 1021 hPa
Clouds: Overcast
Visibility: 10 miles , 16 km
Cloud details: Overcast 7000 ft
2019/08/25 09:35 KW96 250935Z AUTO 00000KT 10SM OVC070 19/16 A3015 RMK AO1 P0001 T01910156
KBKT - Blackstone Army, Virginia, USA
Distance from station: SW 30mi, 48km
Updated: Sun, 25-Aug-2019 5:35am EDT
Overcast
Overcast
 Wind from N
Wind: N 6 mph , 9 km/h
Temperature: 64°F , 18°C
Dew Point: 61°F , 16°C
Humidity: 88%
Barometer: 30.15 inHg , 1021 hPa
Clouds: Overcast
Visibility: 10 miles , 16 km
Cloud details: Partly cloudy 4900 ft
Overcast 6500 ft
2019/08/25 09:35 KBKT 250935Z AUTO 01005KT 10SM SCT049 OVC065 18/16 A3015 RMK AO1 T01830155
 
KW81 - Crewe, Virginia, USA
Distance from station: SW 30mi, 49km
Updated: Sun, 25-Aug-2019 5:35am EDT
Overcast
Overcast
 Wind from calm
Wind: Calm
Temperature: 64°F , 18°C
Dew Point: 63°F , 17°C
Humidity: 94%
Barometer: 30.16 inHg , 1021.3 hPa
Clouds: Overcast
Visibility: 10 miles , 16 km
Cloud details: Overcast 6000 ft
2019/08/25 09:35 KW81 250935Z AUTO 00000KT 10SM OVC060 18/17 A3016 RMK AO1 T01750167
K7W4 - Bumpass, Virginia, USA
Distance from station: N 38mi, 61km
Updated: Sun, 25-Aug-2019 5:15am EDT
Clear
Clear
 Wind from NW
Wind: NW 3 mph , 6 km/h
Temperature: 59°F , 15°C
Dew Point: 57°F , 14°C
Humidity: 94%
Barometer: 30.18 inHg , 1022 hPa
Clouds: Clear
Visibility: 10 miles , 16 km
2019/08/25 09:15 K7W4 250915Z AUTO 31003KT 10SM CLR 15/14 A3018 RMK AO1 T01470140
 
KFVX - Farmville, Virginia, USA
Distance from station: W 43mi, 69km
Updated: Sun, 25-Aug-2019 5:35am EDT
Overcast
Overcast
 Wind from N
Wind: N 5 mph , 7 km/h
Temperature: 63°F , 17°C
Dew Point: 59°F , 15°C
Humidity: 88%
Barometer: 30.16 inHg , 1021.3 hPa
Clouds: Overcast
Visibility: 10 miles , 16 km
Cloud details: Overcast 7500 ft
2019/08/25 09:35 KFVX 250935Z AUTO 01004KT 10SM OVC075 17/15 A3016 RMK AO2 T01700145
KW31 - Kenbridge, Virginia, USA
Distance from station: SW 43mi, 70km
Updated: Sun, 25-Aug-2019 5:35am EDT
Overcast
Overcast
 
Temperature: 64°F , 18°C
Dew Point: 59°F , 15°C
Humidity: 83%
Barometer: 30.15 inHg , 1021 hPa
Clouds: Overcast
Visibility: 10 miles , 16 km
Cloud details: Partly cloudy 4900 ft
Partly cloudy 5500 ft
Overcast 7000 ft
2019/08/25 09:35 KW31 250935Z AUTO 10SM SCT049 SCT055 OVC070 18/15 A3015 RMK AO1 T01820152
 
KLKU - Louisa, Virginia, USA
Distance from station: NNW 44mi, 72km
Updated: Sun, 25-Aug-2019 5:15am EDT
Clear
Clear
 Wind from NNW
Wind: NNW 3 mph , 6 km/h
Temperature: 54°F , 12°C
Dew Point: 54°F , 12°C
Humidity: 100%
Barometer: 30.23 inHg , 1023.7 hPa
Clouds: Clear
Visibility: 10 miles , 16 km
2019/08/25 09:15 KLKU 250915Z AUTO 34003KT 10SM CLR 12/12 A3023 RMK AO2 T01250118
KLVL - Lawrenceville, Virginia, USA
Distance from station: S 46mi, 75km
Updated: Sun, 25-Aug-2019 5:15am EDT
Overcast
Overcast
 Wind from calm
Wind: Calm
Temperature: 66°F , 19°C
Dew Point: 63°F , 17°C
Humidity: 88%
Barometer: 30.14 inHg , 1020.7 hPa
Clouds: Overcast
Visibility: 10 miles , 16 km
Cloud details: Overcast 4600 ft
2019/08/25 09:15 KLVL 250915Z AUTO 00000KT 10SM OVC046 19/17 A3014 RMK AO1 T01880167
 
KAKQ - Norfolk/Wakefld, Virginia, USA
Distance from station: SE 47mi, 75km
Updated: Sun, 25-Aug-2019 4:54am EDT
Overcast
Overcast
 Wind from calm
Wind: Calm
Temperature: 70°F , 21°C
Dew Point: 61°F , 16°C
Humidity: 73%
Barometer: 30.12 inHg , 1020 hPa
Clouds: Overcast
Visibility: 10 miles , 16 km
Cloud details: Mostly cloudy 4900 ft
Overcast 6000 ft
2019/08/25 08:54 KAKQ 250854Z AUTO 00000KT 10SM BKN049 OVC060 21/16 A3012 RMK AO2 SLP198 T02060161 55007
KFYJ - West Point, Virginia, USA
Distance from station: E 48mi, 78km
Updated: Sun, 25-Aug-2019 5:15am EDT
Overcast
Overcast
 Wind from calm
Wind: Calm
Temperature: 68°F , 20°C
Dew Point: 61°F , 16°C
Humidity: 78%
Barometer: 30.15 inHg , 1021 hPa
Clouds: Overcast
Visibility: 10 miles , 16 km
Cloud details: Overcast 7000 ft
2019/08/25 09:15 KFYJ 250915Z AUTO 00000KT 10SM OVC070 20/16 A3015 RMK AO1 T02020157
 
KXSA - Tappahannock, Virginia, USA
Distance from station: NE 51mi, 82km
Updated: Sun, 25-Aug-2019 5:35am EDT
Clear
Clear
 Wind from calm
Wind: Calm
Temperature: 61°F , 16°C
Dew Point: 61°F , 16°C
Humidity: 100%
Barometer: 30.17 inHg , 1021.7 hPa
Clouds: Clear
Visibility: 10 miles , 16 km
2019/08/25 09:35 KXSA 250935Z AUTO 00000KT 10SM CLR 16/16 A3017 RMK AO2 T01580158
KEMV - Emporia, Virginia, USA
Distance from station: S 52mi, 84km
Updated: Sun, 25-Aug-2019 5:35am EDT
Overcast
Overcast
 Wind from NNW
Wind: NNW 3 mph , 6 km/h
Temperature: 66°F , 19°C
Dew Point: 63°F , 17°C
Humidity: 88%
Barometer: 30.13 inHg , 1020.3 hPa
Clouds: Overcast
Visibility: 10 miles , 16 km
Cloud details: Partly cloudy 4100 ft
Overcast 6000 ft
2019/08/25 09:35 KEMV 250935Z AUTO 34003KT 10SM SCT041 OVC060 19/17 A3013 RMK AO2 T01900172
 
KJGG - Williamsburg, Virginia, USA
Distance from station: ESE 53mi, 85km
Updated: Sun, 25-Aug-2019 5:15am EDT
Partly cloudy
Partly cloudy
 Wind from calm
Wind: Calm
Temperature: 70°F , 21°C
Dew Point: 63°F , 17°C
Humidity: 78%
Barometer: 30.13 inHg , 1020.3 hPa
Clouds: Partly cloudy
Visibility: 10 miles , 16 km
Cloud details: Partly cloudy 7000 ft
2019/08/25 09:15 KJGG 250915Z AUTO 00000KT 10SM SCT070 21/17 A3013 RMK AO1
KAVC - South Hill/Meckl, Virginia, USA
Distance from station: SSW 56mi, 90km
Updated: Sun, 25-Aug-2019 5:35am EDT
Overcast
Overcast
 Wind from N
Wind: N 6 mph , 9 km/h
Temperature: 64°F , 18°C
Dew Point: 64°F , 18°C
Humidity: 100%
Barometer: 30.19 inHg , 1022.4 hPa
Clouds: Overcast
Visibility: 10 miles , 16 km
Cloud details: Partly cloudy 5000 ft
Overcast 6500 ft
2019/08/25 09:35 KAVC 250935Z AUTO 36005KT 10SM SCT050 OVC065 18/18 A3019 RMK AO2 T01800175
 
KGVE - Gordonsville, Virginia, USA
Distance from station: NNW 58mi, 93km
Updated: Sun, 25-Aug-2019 5:35am EDT
Partly cloudy
Partly cloudy
 Wind from calm
Wind: Calm
Temperature: 55°F , 13°C
Dew Point: 55°F , 13°C
Humidity: 100%
Barometer: 30.18 inHg , 1022 hPa
Clouds: Partly cloudy
Visibility: 10 miles , 16 km
Cloud details: Partly cloudy 6000 ft
2019/08/25 09:35 KGVE 250935Z AUTO 00000KT 10SM SCT060 13/13 A3018 RMK AO1 T01280128
KEZF - Fredericksb/Shan, Virginia, USA
Distance from station: N 59mi, 95km
Updated: Sun, 25-Aug-2019 5:15am EDT
Mostly cloudy
Mostly cloudy
 Wind from calm
Wind: Calm
Temperature: 61°F , 16°C
Dew Point: 61°F , 16°C
Humidity: 100%
Barometer: 30.17 inHg , 1021.7 hPa
Clouds: Mostly cloudy
Visibility: 10 miles , 16 km
Cloud details: Mostly cloudy 7000 ft
2019/08/25 09:15 KEZF 250915Z AUTO 00000KT 10SM BKN070 16/16 A3017 RMK AO2 T01580157